sensor_id;sensor_type;location;lat;lon;timestamp;pressure;altitude;pressure_sealevel;temperature;humidity
72942;BME280;69665;55.822;37.330;2023-05-01T00:00:24;98567.91;;;8.78;53.49
72942;BME280;69665;55.822;37.330;2023-05-01T00:02:52;98568.69;;;8.80;55.71
72942;BME280;69665;55.822;37.330;2023-05-01T00:05:18;98574.88;;;8.79;55.43
72942;BME280;69665;55.822;37.330;2023-05-01T00:07:43;98573.69;;;8.84;55.75
72942;BME280;69665;55.822;37.330;2023-05-01T00:10:09;98556.50;;;8.79;55.80
72942;BME280;69665;55.822;37.330;2023-05-01T00:12:35;98577.66;;;8.93;55.95
72942;BME280;69665;55.822;37.330;2023-05-01T00:15:00;98575.75;;;8.97;55.94
72942;BME280;69665;55.822;37.330;2023-05-01T00:17:26;98574.13;;;8.94;50.58
72942;BME280;69665;55.822;37.330;2023-05-01T00:19:52;98576.13;;;8.89;55.22
72942;BME280;69665;55.822;37.330;2023-05-01T00:22:18;98564.06;;;8.85;54.64
72942;BME280;69665;55.822;37.330;2023-05-01T00:24:44;98586.31;;;8.95;55.09
72942;BME280;69665;55.822;37.330;2023-05-01T00:27:12;98571.19;;;8.83;53.67
72942;BME280;69665;55.822;37.330;2023-05-01T00:29:40;98586.81;;;8.84;52.65
72942;BME280;69665;55.822;37.330;2023-05-01T00:32:06;98574.25;;;8.74;53.65
72942;BME280;69665;55.822;37.330;2023-05-01T00:34:32;98572.81;;;8.67;53.23
72942;BME280;69665;55.822;37.330;2023-05-01T00:36:57;98601.25;;;8.76;54.59
72942;BME280;69665;55.822;37.330;2023-05-01T00:39:23;98593.09;;;8.82;54.94
72942;BME280;69665;55.822;37.330;2023-05-01T00:41:49;98591.00;;;8.89;53.92
72942;BME280;69665;55.822;37.330;2023-05-01T00:44:14;98580.97;;;8.79;52.12
72942;BME280;69665;55.822;37.330;2023-05-01T00:46:41;98579.66;;;8.88;52.42
72942;BME280;69665;55.822;37.330;2023-05-01T00:49:08;98583.34;;;8.84;52.90
72942;BME280;69665;55.822;37.330;2023-05-01T00:51:34;98548.84;;;8.74;52.76
72942;BME280;69665;55.822;37.330;2023-05-01T00:54:00;98576.56;;;8.80;52.96
72942;BME280;69665;55.822;37.330;2023-05-01T00:56:27;98559.56;;;8.70;53.73
72942;BME280;69665;55.822;37.330;2023-05-01T00:58:53;98549.19;;;8.67;54.99
72942;BME280;69665;55.822;37.330;2023-05-01T01:01:22;98575.66;;;8.81;54.57
72942;BME280;69665;55.822;37.330;2023-05-01T01:03:48;98570.16;;;8.85;54.79
72942;BME280;69665;55.822;37.330;2023-05-01T01:06:31;98570.34;;;8.82;55.81
72942;BME280;69665;55.822;37.330;2023-05-01T01:09:26;98590.16;;;8.88;56.45
72942;BME280;69665;55.822;37.330;2023-05-01T01:17:38;98588.88;;;8.97;55.61
72942;BME280;69665;55.822;37.330;2023-05-01T01:29:38;98603.50;;;9.19;55.12
72942;BME280;69665;55.822;37.330;2023-05-01T01:31:32;98611.81;;;9.29;54.77
72942;BME280;69665;55.822;37.330;2023-05-01T01:34:13;98593.34;;;9.31;54.31
72942;BME280;69665;55.822;37.330;2023-05-01T01:36:46;98590.78;;;9.29;54.45
72942;BME280;69665;55.822;37.330;2023-05-01T01:39:23;98558.56;;;9.26;55.09
72942;BME280;69665;55.822;37.330;2023-05-01T01:41:52;98550.59;;;9.27;54.48
72942;BME280;69665;55.822;37.330;2023-05-01T01:44:47;98555.00;;;9.27;55.92
72942;BME280;69665;55.822;37.330;2023-05-01T01:47:17;98552.06;;;9.15;54.87
72942;BME280;69665;55.822;37.330;2023-05-01T01:49:48;98547.88;;;9.11;54.59
72942;BME280;69665;55.822;37.330;2023-05-01T01:52:15;98530.03;;;9.01;54.29
72942;BME280;69665;55.822;37.330;2023-05-01T01:55:08;98564.41;;;9.13;55.86
72942;BME280;69665;55.822;37.330;2023-05-01T01:57:39;98540.47;;;9.02;55.09
72942;BME280;69665;55.822;37.330;2023-05-01T02:00:09;98556.44;;;9.15;54.48
72942;BME280;69665;55.822;37.330;2023-05-01T02:02:44;98552.19;;;9.12;55.78
72942;BME280;69665;55.822;37.330;2023-05-01T02:05:14;98537.63;;;9.07;54.77
72942;BME280;69665;55.822;37.330;2023-05-01T02:07:41;98531.81;;;9.00;53.04
72942;BME280;69665;55.822;37.330;2023-05-01T02:10:10;98511.41;;;8.88;54.98
72942;BME280;69665;55.822;37.330;2023-05-01T02:12:37;98540.63;;;8.99;55.16
72942;BME280;69665;55.822;37.330;2023-05-01T02:15:05;98549.19;;;9.03;54.78
72942;BME280;69665;55.822;37.330;2023-05-01T02:17:34;98549.81;;;9.08;55.16
72942;BME280;69665;55.822;37.330;2023-05-01T02:20:01;98538.00;;;9.16;54.69
72942;BME280;69665;55.822;37.330;2023-05-01T02:22:29;98536.84;;;9.22;55.23
72942;BME280;69665;55.822;37.330;2023-05-01T02:24:56;98522.53;;;9.10;54.99
72942;BME280;69665;55.822;37.330;2023-05-01T02:27:35;98550.31;;;9.33;54.99
72942;BME280;69665;55.822;37.330;2023-05-01T02:30:03;98531.84;;;9.35;55.32
72942;BME280;69665;55.822;37.330;2023-05-01T02:32:30;98514.19;;;9.37;54.44
72942;BME280;69665;55.822;37.330;2023-05-01T02:34:56;98533.13;;;9.43;53.95
72942;BME280;69665;55.822;37.330;2023-05-01T02:37:22;98532.56;;;9.37;54.27
72942;BME280;69665;55.822;37.330;2023-05-01T02:39:48;98549.88;;;9.41;54.83
72942;BME280;69665;55.822;37.330;2023-05-01T02:42:19;98542.16;;;9.38;54.86
72942;BME280;69665;55.822;37.330;2023-05-01T02:45:05;98549.50;;;9.48;54.63
72942;BME280;69665;55.822;37.330;2023-05-01T02:47:35;98569.50;;;9.68;54.51
72942;BME280;69665;55.822;37.330;2023-05-01T02:50:01;98587.50;;;9.76;53.62
72942;BME280;69665;55.822;37.330;2023-05-01T02:52:29;98562.47;;;9.69;53.94
72942;BME280;69665;55.822;37.330;2023-05-01T02:55:12;98573.22;;;9.81;54.22
72942;BME280;69665;55.822;37.330;2023-05-01T02:57:38;98594.53;;;9.93;53.38
72942;BME280;69665;55.822;37.330;2023-05-01T03:00:04;98588.50;;;9.91;54.18
72942;BME280;69665;55.822;37.330;2023-05-01T03:02:33;98599.31;;;10.02;54.22
72942;BME280;69665;55.822;37.330;2023-05-01T03:04:59;98600.25;;;10.01;53.78
72942;BME280;69665;55.822;37.330;2023-05-01T03:07:25;98606.50;;;9.98;53.04
72942;BME280;69665;55.822;37.330;2023-05-01T03:10:02;98605.50;;;10.01;53.70
72942;BME280;69665;55.822;37.330;2023-05-01T03:12:31;98604.66;;;10.00;54.11
72942;BME280;69665;55.822;37.330;2023-05-01T03:14:57;98608.28;;;9.98;53.20
72942;BME280;69665;55.822;37.330;2023-05-01T03:17:22;98604.09;;;9.94;53.20
72942;BME280;69665;55.822;37.330;2023-05-01T03:19:48;98602.09;;;9.99;53.17
72942;BME280;69665;55.822;37.330;2023-05-01T03:22:15;98579.66;;;9.92;52.91
72942;BME280;69665;55.822;37.330;2023-05-01T03:24:40;98581.06;;;9.99;53.13
72942;BME280;69665;55.822;37.330;2023-05-01T03:27:06;98585.84;;;10.08;52.95
72942;BME280;69665;55.822;37.330;2023-05-01T03:29:32;98576.94;;;10.10;53.22
72942;BME280;69665;55.822;37.330;2023-05-01T03:31:59;98570.06;;;10.08;53.05
72942;BME280;69665;55.822;37.330;2023-05-01T03:34:24;98577.03;;;10.09;52.76
72942;BME280;69665;55.822;37.330;2023-05-01T03:36:52;98555.06;;;9.93;52.98
72942;BME280;69665;55.822;37.330;2023-05-01T03:39:19;98584.63;;;9.98;53.34
72942;BME280;69665;55.822;37.330;2023-05-01T03:42:19;98587.09;;;10.01;53.48
72942;BME280;69665;55.822;37.330;2023-05-01T03:44:47;98590.41;;;10.04;53.32
72942;BME280;69665;55.822;37.330;2023-05-01T03:47:17;98583.53;;;10.02;53.34
72942;BME280;69665;55.822;37.330;2023-05-01T03:49:44;98584.22;;;10.05;53.22
72942;BME280;69665;55.822;37.330;2023-05-01T03:52:10;98587.16;;;9.99;53.14
72942;BME280;69665;55.822;37.330;2023-05-01T03:54:40;98588.19;;;9.97;52.82
72942;BME280;69665;55.822;37.330;2023-05-01T03:57:20;98608.66;;;10.07;52.83
72942;BME280;69665;55.822;37.330;2023-05-01T03:59:48;98601.78;;;10.05;52.96
72942;BME280;69665;55.822;37.330;2023-05-01T04:02:15;98609.09;;;10.15;52.76
72942;BME280;69665;55.822;37.330;2023-05-01T04:04:43;98578.56;;;10.13;53.04
72942;BME280;69665;55.822;37.330;2023-05-01T04:07:08;98590.06;;;10.28;51.88
72942;BME280;69665;55.822;37.330;2023-05-01T04:09:34;98591.53;;;10.16;51.21
72942;BME280;69665;55.822;37.330;2023-05-01T04:12:00;98597.56;;;10.18;51.69
72942;BME280;69665;55.822;37.330;2023-05-01T04:14:27;98591.69;;;10.30;52.67
72942;BME280;69665;55.822;37.330;2023-05-01T04:16:52;98599.19;;;10.38;52.47
72942;BME280;69665;55.822;37.330;2023-05-01T04:19:18;98598.81;;;10.44;52.09
72942;BME280;69665;55.822;37.330;2023-05-01T04:21:45;98607.41;;;10.47;52.16
72942;BME280;69665;55.822;37.330;2023-05-01T04:24:11;98612.44;;;10.52;52.45
72942;BME280;69665;55.822;37.330;2023-05-01T04:26:37;98612.44;;;10.52;51.92
72942;BME280;69665;55.822;37.330;2023-05-01T04:29:03;98611.25;;;10.58;52.61
72942;BME280;69665;55.822;37.330;2023-05-01T04:31:29;98596.22;;;10.60;52.27
72942;BME280;69665;55.822;37.330;2023-05-01T04:33:55;98613.03;;;10.73;52.16
72942;BME280;69665;55.822;37.330;2023-05-01T04:36:21;98597.56;;;10.67;51.65
72942;BME280;69665;55.822;37.330;2023-05-01T04:38:47;98607.50;;;10.77;51.94
72942;BME280;69665;55.822;37.330;2023-05-01T04:41:13;98604.09;;;10.75;51.71
72942;BME280;69665;55.822;37.330;2023-05-01T04:43:38;98617.78;;;10.82;52.08
72942;BME280;69665;55.822;37.330;2023-05-01T04:46:05;98630.19;;;10.80;51.71
72942;BME280;69665;55.822;37.330;2023-05-01T04:48:31;98622.63;;;10.74;52.23
72942;BME280;69665;55.822;37.330;2023-05-01T04:50:56;98624.94;;;10.80;51.72
72942;BME280;69665;55.822;37.330;2023-05-01T04:53:26;98629.19;;;10.82;52.04
72942;BME280;69665;55.822;37.330;2023-05-01T04:55:52;98619.56;;;10.81;52.32
72942;BME280;69665;55.822;37.330;2023-05-01T04:58:17;98628.56;;;10.77;51.80
72942;BME280;69665;55.822;37.330;2023-05-01T05:00:46;98640.56;;;10.83;51.92
72942;BME280;69665;55.822;37.330;2023-05-01T05:03:19;98625.78;;;10.80;52.16
72942;BME280;69665;55.822;37.330;2023-05-01T05:05:45;98635.97;;;10.86;52.14
72942;BME280;69665;55.822;37.330;2023-05-01T05:08:11;98639.38;;;10.88;51.84
72942;BME280;69665;55.822;37.330;2023-05-01T05:10:41;98642.59;;;10.94;52.06
72942;BME280;69665;55.822;37.330;2023-05-01T05:13:23;98632.13;;;10.92;51.50
72942;BME280;69665;55.822;37.330;2023-05-01T05:15:56;98625.44;;;11.02;51.73
72942;BME280;69665;55.822;37.330;2023-05-01T05:18:23;98629.34;;;11.11;51.78
72942;BME280;69665;55.822;37.330;2023-05-01T05:20:49;98617.00;;;11.11;52.00
72942;BME280;69665;55.822;37.330;2023-05-01T05:23:15;98629.56;;;11.22;51.10
72942;BME280;69665;55.822;37.330;2023-05-01T05:25:41;98635.69;;;11.22;51.49
72942;BME280;69665;55.822;37.330;2023-05-01T05:28:06;98643.00;;;11.33;51.06
72942;BME280;69665;55.822;37.330;2023-05-01T05:30:32;98630.41;;;11.38;51.21
72942;BME280;69665;55.822;37.330;2023-05-01T05:32:58;98630.34;;;11.54;50.61
72942;BME280;69665;55.822;37.330;2023-05-01T05:35:24;98636.97;;;11.61;51.00
72942;BME280;69665;55.822;37.330;2023-05-01T05:37:52;98635.41;;;11.43;49.05
72942;BME280;69665;55.822;37.330;2023-05-01T05:40:19;98626.06;;;11.37;50.88
72942;BME280;69665;55.822;37.330;2023-05-01T05:42:52;98635.84;;;11.35;51.27
72942;BME280;69665;55.822;37.330;2023-05-01T05:45:19;98633.34;;;11.48;51.32
72942;BME280;69665;55.822;37.330;2023-05-01T05:47:45;98628.72;;;11.67;50.56
72942;BME280;69665;55.822;37.330;2023-05-01T05:50:11;98635.75;;;11.82;50.70
72942;BME280;69665;55.822;37.330;2023-05-01T05:52:38;98635.13;;;11.93;50.53
72942;BME280;69665;55.822;37.330;2023-05-01T05:55:06;98639.72;;;12.04;50.24
72942;BME280;69665;55.822;37.330;2023-05-01T05:57:32;98651.63;;;12.11;49.71
72942;BME280;69665;55.822;37.330;2023-05-01T06:00:03;98653.81;;;12.18;49.65
72942;BME280;69665;55.822;37.330;2023-05-01T06:02:37;98660.41;;;12.26;49.71
72942;BME280;69665;55.822;37.330;2023-05-01T06:05:04;98659.47;;;12.27;49.13
72942;BME280;69665;55.822;37.330;2023-05-01T06:07:29;98667.84;;;12.33;49.27
72942;BME280;69665;55.822;37.330;2023-05-01T06:09:55;98668.25;;;12.41;49.03
72942;BME280;69665;55.822;37.330;2023-05-01T06:12:27;98675.78;;;12.47;48.99
72942;BME280;69665;55.822;37.330;2023-05-01T06:14:54;98684.66;;;12.61;48.86
72942;BME280;69665;55.822;37.330;2023-05-01T06:17:20;98676.63;;;12.76;48.76
72942;BME280;69665;55.822;37.330;2023-05-01T06:19:45;98671.34;;;12.90;48.17
72942;BME280;69665;55.822;37.330;2023-05-01T06:22:11;98671.94;;;13.08;48.28
72942;BME280;69665;55.822;37.330;2023-05-01T06:24:56;98667.59;;;13.07;48.12
72942;BME280;69665;55.822;37.330;2023-05-01T06:27:24;98667.59;;;13.07;47.83
72942;BME280;69665;55.822;37.330;2023-05-01T06:29:50;98684.78;;;13.14;47.44
72942;BME280;69665;55.822;37.330;2023-05-01T06:32:16;98689.91;;;13.17;46.96
72942;BME280;69665;55.822;37.330;2023-05-01T06:34:41;98681.22;;;13.15;47.19
72942;BME280;69665;55.822;37.330;2023-05-01T06:37:08;98699.03;;;13.26;47.29
72942;BME280;69665;55.822;37.330;2023-05-01T06:39:33;98701.56;;;13.42;47.45
72942;BME280;69665;55.822;37.330;2023-05-01T06:41:59;98685.63;;;13.56;46.99
72942;BME280;69665;55.822;37.330;2023-05-01T06:44:36;98691.75;;;13.83;46.59
72942;BME280;69665;55.822;37.330;2023-05-01T06:47:02;98703.03;;;14.00;45.95
72942;BME280;69665;55.822;37.330;2023-05-01T06:49:27;98700.81;;;14.19;46.35
72942;BME280;69665;55.822;37.330;2023-05-01T06:51:53;98692.25;;;14.28;45.82
72942;BME280;69665;55.822;37.330;2023-05-01T06:54:18;98697.59;;;14.53;45.30
72942;BME280;69665;55.822;37.330;2023-05-01T06:56:44;98704.78;;;14.77;45.12
72942;BME280;69665;55.822;37.330;2023-05-01T06:59:10;98698.81;;;14.99;44.36
72942;BME280;69665;55.822;37.330;2023-05-01T07:01:35;98700.47;;;15.49;44.32
72942;BME280;69665;55.822;37.330;2023-05-01T07:04:01;98703.22;;;15.95;42.85
72942;BME280;69665;55.822;37.330;2023-05-01T07:06:28;98706.00;;;16.28;42.01
72942;BME280;69665;55.822;37.330;2023-05-01T07:08:53;98695.53;;;16.49;41.94
72942;BME280;69665;55.822;37.330;2023-05-01T07:11:19;98713.59;;;16.79;41.23
72942;BME280;69665;55.822;37.330;2023-05-01T07:13:44;98702.19;;;17.33;40.12
72942;BME280;69665;55.822;37.330;2023-05-01T07:16:10;98699.91;;;17.83;39.75
72942;BME280;69665;55.822;37.330;2023-05-01T07:18:36;98691.88;;;18.77;38.86
72942;BME280;69665;55.822;37.330;2023-05-01T07:21:02;98705.41;;;20.04;37.54
72942;BME280;69665;55.822;37.330;2023-05-01T07:23:27;98698.88;;;23.57;34.46
72942;BME280;69665;55.822;37.330;2023-05-01T07:25:53;98707.03;;;24.06;33.46
72942;BME280;69665;55.822;37.330;2023-05-01T07:28:18;98705.81;;;23.92;32.94
72942;BME280;69665;55.822;37.330;2023-05-01T07:30:44;98709.47;;;23.24;33.47
72942;BME280;69665;55.822;37.330;2023-05-01T07:33:10;98711.06;;;23.01;33.11
72942;BME280;69665;55.822;37.330;2023-05-01T07:35:36;98714.16;;;22.88;33.61
72942;BME280;69665;55.822;37.330;2023-05-01T07:38:02;98718.47;;;22.55;32.92
72942;BME280;69665;55.822;37.330;2023-05-01T07:40:27;98734.59;;;22.02;33.76
72942;BME280;69665;55.822;37.330;2023-05-01T07:42:53;98741.28;;;21.71;33.87
72942;BME280;69665;55.822;37.330;2023-05-01T07:45:18;98739.41;;;21.16;33.78
72942;BME280;69665;55.822;37.330;2023-05-01T07:47:44;98733.78;;;20.73;34.52
72942;BME280;69665;55.822;37.330;2023-05-01T07:50:10;98741.41;;;20.29;34.58
72942;BME280;69665;55.822;37.330;2023-05-01T07:52:36;98754.34;;;19.85;35.15
72942;BME280;69665;55.822;37.330;2023-05-01T07:55:02;98752.91;;;19.31;35.72
72942;BME280;69665;55.822;37.330;2023-05-01T07:57:28;98753.50;;;19.05;36.10
72942;BME280;69665;55.822;37.330;2023-05-01T07:59:54;98767.00;;;18.41;36.38
72942;BME280;69665;55.822;37.330;2023-05-01T08:02:22;98782.84;;;17.89;36.70
72942;BME280;69665;55.822;37.330;2023-05-01T08:04:48;98782.38;;;17.51;37.38
72942;BME280;69665;55.822;37.330;2023-05-01T08:07:14;98793.53;;;17.22;37.56
72942;BME280;69665;55.822;37.330;2023-05-01T08:09:39;98785.91;;;16.84;37.71
72942;BME280;69665;55.822;37.330;2023-05-01T08:12:05;98794.50;;;16.53;38.39
72942;BME280;69665;55.822;37.330;2023-05-01T08:14:31;98812.47;;;16.49;38.35
72942;BME280;69665;55.822;37.330;2023-05-01T08:16:57;98817.03;;;16.36;38.78
72942;BME280;69665;55.822;37.330;2023-05-01T08:19:22;98813.16;;;16.40;38.59
72942;BME280;69665;55.822;37.330;2023-05-01T08:21:48;98814.41;;;16.47;38.69
72942;BME280;69665;55.822;37.330;2023-05-01T08:24:13;98809.06;;;16.36;38.68
72942;BME280;69665;55.822;37.330;2023-05-01T08:26:41;98814.59;;;16.33;37.83
72942;BME280;69665;55.822;37.330;2023-05-01T08:29:07;98810.59;;;16.04;38.45
72942;BME280;69665;55.822;37.330;2023-05-01T08:31:32;98825.72;;;15.90;38.64
72942;BME280;69665;55.822;37.330;2023-05-01T08:34:02;98823.97;;;15.78;38.51
72942;BME280;69665;55.822;37.330;2023-05-01T08:36:28;98821.75;;;15.72;39.11
72942;BME280;69665;55.822;37.330;2023-05-01T08:38:54;98833.22;;;15.73;38.55
72942;BME280;69665;55.822;37.330;2023-05-01T08:41:21;98847.13;;;15.76;38.83
72942;BME280;69665;55.822;37.330;2023-05-01T08:43:49;98839.56;;;15.83;39.01
72942;BME280;69665;55.822;37.330;2023-05-01T08:46:24;98843.56;;;15.88;39.19
72942;BME280;69665;55.822;37.330;2023-05-01T08:48:51;98852.66;;;16.10;39.02
72942;BME280;69665;55.822;37.330;2023-05-01T08:51:21;98848.75;;;16.26;38.59
72942;BME280;69665;55.822;37.330;2023-05-01T08:53:49;98852.34;;;16.49;38.13
72942;BME280;69665;55.822;37.330;2023-05-01T08:56:17;98843.06;;;16.55;37.73
72942;BME280;69665;55.822;37.330;2023-05-01T08:58:46;98853.84;;;16.88;37.29
72942;BME280;69665;55.822;37.330;2023-05-01T09:01:17;98854.00;;;17.20;37.31
72942;BME280;69665;55.822;37.330;2023-05-01T09:03:45;98855.94;;;17.29;36.80
72942;BME280;69665;55.822;37.330;2023-05-01T09:06:12;98862.34;;;17.27;36.79
72942;BME280;69665;55.822;37.330;2023-05-01T09:08:38;98861.78;;;17.35;37.17
72942;BME280;69665;55.822;37.330;2023-05-01T09:11:03;98858.38;;;17.44;36.59
72942;BME280;69665;55.822;37.330;2023-05-01T09:13:30;98878.47;;;17.48;36.76
72942;BME280;69665;55.822;37.330;2023-05-01T09:15:55;98867.44;;;17.52;36.29
72942;BME280;69665;55.822;37.330;2023-05-01T09:18:21;98870.22;;;17.51;36.55
72942;BME280;69665;55.822;37.330;2023-05-01T09:20:48;98872.03;;;17.50;36.35
72942;BME280;69665;55.822;37.330;2023-05-01T09:23:17;98878.72;;;17.56;36.22
72942;BME280;69665;55.822;37.330;2023-05-01T09:25:44;98883.66;;;17.49;35.99
72942;BME280;69665;55.822;37.330;2023-05-01T09:28:10;98880.63;;;17.32;36.47
72942;BME280;69665;55.822;37.330;2023-05-01T09:30:37;98872.28;;;17.25;36.44
72942;BME280;69665;55.822;37.330;2023-05-01T09:33:13;98880.44;;;16.88;36.51
72942;BME280;69665;55.822;37.330;2023-05-01T09:35:52;98872.94;;;16.35;37.09
72942;BME280;69665;55.822;37.330;2023-05-01T09:38:20;98885.53;;;16.20;37.11
72942;BME280;69665;55.822;37.330;2023-05-01T09:40:46;98893.56;;;16.07;37.42
72942;BME280;69665;55.822;37.330;2023-05-01T09:43:12;98898.47;;;16.01;37.50
72942;BME280;69665;55.822;37.330;2023-05-01T09:45:37;98896.06;;;15.85;37.32
72942;BME280;69665;55.822;37.330;2023-05-01T09:48:10;98906.50;;;15.63;38.36
72942;BME280;69665;55.822;37.330;2023-05-01T09:50:36;98913.06;;;15.32;37.61
72942;BME280;69665;55.822;37.330;2023-05-01T09:53:04;98916.22;;;15.11;38.26
72942;BME280;69665;55.822;37.330;2023-05-01T09:55:32;98918.88;;;14.99;39.09
72942;BME280;69665;55.822;37.330;2023-05-01T09:57:57;98915.13;;;14.88;38.71
72942;BME280;69665;55.822;37.330;2023-05-01T10:00:24;98923.88;;;14.64;38.31
72942;BME280;69665;55.822;37.330;2023-05-01T10:02:50;98916.53;;;14.13;37.93
72942;BME280;69665;55.822;37.330;2023-05-01T10:05:16;98935.16;;;13.71;39.05
72942;BME280;69665;55.822;37.330;2023-05-01T10:07:59;98938.41;;;13.32;41.09
72942;BME280;69665;55.822;37.330;2023-05-01T10:10:25;98952.31;;;13.05;40.56
72942;BME280;69665;55.822;37.330;2023-05-01T10:12:51;98951.88;;;12.83;41.90
72942;BME280;69665;55.822;37.330;2023-05-01T10:15:17;98964.88;;;12.72;41.33
72942;BME280;69665;55.822;37.330;2023-05-01T10:17:43;98968.22;;;12.60;41.55
72942;BME280;69665;55.822;37.330;2023-05-01T10:20:10;98969.09;;;12.44;41.68
72942;BME280;69665;55.822;37.330;2023-05-01T10:22:39;98975.63;;;12.21;42.45
72942;BME280;69665;55.822;37.330;2023-05-01T10:25:08;98966.09;;;11.87;42.72
72942;BME280;69665;55.822;37.330;2023-05-01T10:27:40;98967.88;;;11.87;41.61
72942;BME280;69665;55.822;37.330;2023-05-01T10:30:07;98985.41;;;11.71;42.13
72942;BME280;69665;55.822;37.330;2023-05-01T10:32:34;98987.78;;;11.60;42.64
72942;BME280;69665;55.822;37.330;2023-05-01T10:35:04;98989.72;;;11.56;42.47
72942;BME280;69665;55.822;37.330;2023-05-01T10:37:37;99009.97;;;11.55;42.83
72942;BME280;69665;55.822;37.330;2023-05-01T10:45:45;99030.84;;;11.26;43.14
72942;BME280;69665;55.822;37.330;2023-05-01T10:48:11;99039.53;;;11.10;44.13
72942;BME280;69665;55.822;37.330;2023-05-01T10:51:14;99042.97;;;10.94;44.97
72942;BME280;69665;55.822;37.330;2023-05-01T10:53:43;99036.06;;;10.74;43.08
72942;BME280;69665;55.822;37.330;2023-05-01T10:58:57;99064.47;;;10.48;43.61
72942;BME280;69665;55.822;37.330;2023-05-01T11:01:31;99062.38;;;10.38;44.46
72942;BME280;69665;55.822;37.330;2023-05-01T11:04:01;99055.53;;;10.34;45.38
72942;BME280;69665;55.822;37.330;2023-05-01T11:06:33;99061.34;;;10.22;44.44
72942;BME280;69665;55.822;37.330;2023-05-01T11:08:59;99079.56;;;10.26;43.73
72942;BME280;69665;55.822;37.330;2023-05-01T11:13:58;99073.50;;;10.24;44.32
72942;BME280;69665;55.822;37.330;2023-05-01T11:21:48;99093.59;;;10.06;44.23
72942;BME280;69665;55.822;37.330;2023-05-01T11:24:15;99066.41;;;9.87;44.42
72942;BME280;69665;55.822;37.330;2023-05-01T11:26:44;99098.91;;;10.05;44.66
72942;BME280;69665;55.822;37.330;2023-05-01T11:29:10;99103.13;;;10.09;43.85
72942;BME280;69665;55.822;37.330;2023-05-01T11:31:36;99110.28;;;10.05;44.17
72942;BME280;69665;55.822;37.330;2023-05-01T11:34:02;99096.03;;;9.91;44.62
72942;BME280;69665;55.822;37.330;2023-05-01T11:36:29;99119.06;;;9.85;44.71
72942;BME280;69665;55.822;37.330;2023-05-01T11:38:56;99124.66;;;9.78;42.21
72942;BME280;69665;55.822;37.330;2023-05-01T11:41:24;99124.19;;;9.68;45.20
72942;BME280;69665;55.822;37.330;2023-05-01T11:43:59;99129.56;;;9.65;45.06
72942;BME280;69665;55.822;37.330;2023-05-01T11:46:31;99133.47;;;9.57;45.75
72942;BME280;69665;55.822;37.330;2023-05-01T11:49:01;99138.84;;;9.53;45.49
72942;BME280;69665;55.822;37.330;2023-05-01T11:51:28;99153.75;;;9.53;45.21
72942;BME280;69665;55.822;37.330;2023-05-01T11:53:57;99145.75;;;9.56;46.81
72942;BME280;69665;55.822;37.330;2023-05-01T11:56:25;99154.63;;;9.53;46.82
72942;BME280;69665;55.822;37.330;2023-05-01T11:58:50;99145.44;;;9.42;46.53
72942;BME280;69665;55.822;37.330;2023-05-01T12:01:17;99153.94;;;9.48;47.29
72942;BME280;69665;55.822;37.330;2023-05-01T12:03:43;99154.25;;;9.41;47.29
72942;BME280;69665;55.822;37.330;2023-05-01T12:06:12;99165.75;;;9.38;49.52
72942;BME280;69665;55.822;37.330;2023-05-01T12:08:47;99161.47;;;9.36;47.15
72942;BME280;69665;55.822;37.330;2023-05-01T12:11:18;99167.66;;;9.35;46.79
72942;BME280;69665;55.822;37.330;2023-05-01T12:13:45;99177.22;;;9.36;47.63
72942;BME280;69665;55.822;37.330;2023-05-01T12:16:12;99183.22;;;9.39;48.12
72942;BME280;69665;55.822;37.330;2023-05-01T12:18:37;99176.06;;;9.43;47.36
72942;BME280;69665;55.822;37.330;2023-05-01T12:21:03;99165.06;;;9.55;47.16
72942;BME280;69665;55.822;37.330;2023-05-01T12:23:31;99183.28;;;9.60;47.79
72942;BME280;69665;55.822;37.330;2023-05-01T12:25:57;99189.53;;;9.57;47.87
72942;BME280;69665;55.822;37.330;2023-05-01T12:28:23;99187.75;;;9.58;48.11
72942;BME280;69665;55.822;37.330;2023-05-01T12:30:49;99194.78;;;9.57;48.28
72942;BME280;69665;55.822;37.330;2023-05-01T12:33:19;99190.31;;;9.59;48.86
72942;BME280;69665;55.822;37.330;2023-05-01T12:35:46;99201.41;;;9.66;46.67
72942;BME280;69665;55.822;37.330;2023-05-01T12:38:17;99201.28;;;9.69;48.31
72942;BME280;69665;55.822;37.330;2023-05-01T12:40:54;99196.50;;;9.78;49.82
72942;BME280;69665;55.822;37.330;2023-05-01T12:43:29;99206.78;;;9.84;49.42
72942;BME280;69665;55.822;37.330;2023-05-01T12:45:56;99209.00;;;9.94;48.66
72942;BME280;69665;55.822;37.330;2023-05-01T12:48:22;99185.66;;;9.86;49.62
72942;BME280;69665;55.822;37.330;2023-05-01T12:50:48;99211.50;;;10.17;48.45
72942;BME280;69665;55.822;37.330;2023-05-01T12:53:20;99213.97;;;10.22;49.04
72942;BME280;69665;55.822;37.330;2023-05-01T12:55:48;99212.31;;;10.19;49.76
72942;BME280;69665;55.822;37.330;2023-05-01T12:58:18;99224.09;;;10.31;49.08
72942;BME280;69665;55.822;37.330;2023-05-01T13:03:14;99233.75;;;10.50;49.64
72942;BME280;69665;55.822;37.330;2023-05-01T13:05:58;99224.59;;;10.59;49.72
72942;BME280;69665;55.822;37.330;2023-05-01T13:10:55;99220.66;;;10.68;48.91
72942;BME280;69665;55.822;37.330;2023-05-01T13:13:29;99225.25;;;10.83;49.13
72942;BME280;69665;55.822;37.330;2023-05-01T13:16:25;99238.88;;;11.11;48.66
72942;BME280;69665;55.822;37.330;2023-05-01T13:18:52;99236.44;;;11.26;47.40
72942;BME280;69665;55.822;37.330;2023-05-01T13:21:22;99242.84;;;11.39;46.60
72942;BME280;69665;55.822;37.330;2023-05-01T13:23:52;99230.38;;;11.42;46.32
72942;BME280;69665;55.822;37.330;2023-05-01T13:26:24;99224.59;;;11.34;46.21
72942;BME280;69665;55.822;37.330;2023-05-01T13:28:50;99239.81;;;11.46;45.37
72942;BME280;69665;55.822;37.330;2023-05-01T13:31:16;99240.31;;;11.54;44.92
72942;BME280;69665;55.822;37.330;2023-05-01T13:33:42;99249.75;;;11.77;45.12